createdAt,value
2023-01-13T00:00:58.805Z,1.95
2023-01-13T00:03:25.335Z,2.17
2023-01-13T00:05:51.683Z,2.87
2023-01-13T00:08:18.047Z,2.33
2023-01-13T00:10:48.092Z,2.03
2023-01-13T00:13:14.811Z,2.03
2023-01-13T00:15:41.288Z,1.83
2023-01-13T00:18:07.743Z,2.77
2023-01-13T00:20:34.183Z,2.33
2023-01-13T00:23:01.321Z,2.50
2023-01-13T00:25:27.685Z,1.85
2023-01-13T00:27:54.254Z,1.88
2023-01-13T00:30:20.617Z,2.17
2023-01-13T00:32:47.019Z,1.63
2023-01-13T00:35:13.389Z,2.20
2023-01-13T00:37:41.032Z,1.48
2023-01-13T00:40:08.386Z,2.38
2023-01-13T00:42:53.402Z,2.07
2023-01-13T00:45:19.758Z,2.15
2023-01-13T00:47:46.146Z,3.40
2023-01-13T00:50:12.518Z,2.15
2023-01-13T00:52:41.167Z,1.55
2023-01-13T00:55:08.767Z,1.63
2023-01-13T00:57:35.177Z,2.35
2023-01-13T01:00:01.736Z,2.83
2023-01-13T01:02:28.204Z,2.00
2023-01-13T01:04:54.736Z,2.00
2023-01-13T01:07:21.116Z,2.67
2023-01-13T01:09:47.480Z,2.03
2023-01-13T01:12:14.239Z,2.63
2023-01-13T01:14:40.601Z,1.85
2023-01-13T01:17:06.936Z,1.90
2023-01-13T01:19:37.314Z,2.07
2023-01-13T01:22:03.745Z,1.77
2023-01-13T01:24:30.150Z,3.28
2023-01-13T01:26:56.490Z,1.73
2023-01-13T01:29:22.880Z,2.05
2023-01-13T01:31:49.363Z,1.80
2023-01-13T01:34:15.734Z,2.05
2023-01-13T01:36:42.168Z,2.80
2023-01-13T01:39:09.876Z,2.08
2023-01-13T01:41:37.224Z,2.30
2023-01-13T01:44:41.388Z,1.93
2023-01-13T01:47:11.291Z,1.92
2023-01-13T01:49:39.512Z,2.03
2023-01-13T01:52:14.537Z,1.80
2023-01-13T01:54:50.682Z,2.30
2023-01-13T01:57:28.573Z,2.77
2023-01-13T01:59:55.628Z,1.52
2023-01-13T02:02:22.587Z,2.80
2023-01-13T02:04:53.940Z,2.20
2023-01-13T02:07:27.746Z,2.25
2023-01-13T02:09:56.359Z,2.60
2023-01-13T02:12:31.966Z,2.05
2023-01-13T02:15:07.318Z,2.53
2023-01-13T02:17:48.920Z,1.85
2023-01-13T02:20:35.344Z,2.60
2023-01-13T02:23:51.950Z,3.17
2023-01-13T02:26:55.194Z,2.10
2023-01-13T02:29:58.661Z,2.20
2023-01-13T02:33:09.843Z,2.25
2023-01-13T02:35:42.000Z,3.00
2023-01-13T02:38:13.135Z,2.57
2023-01-13T02:40:45.251Z,2.00
2023-01-13T02:43:41.487Z,2.00
2023-01-13T02:46:15.039Z,2.22
2023-01-13T02:48:45.604Z,2.17
2023-01-13T02:51:23.249Z,2.00
2023-01-13T02:53:59.437Z,2.35
2023-01-13T02:56:26.723Z,3.22
2023-01-13T02:58:55.771Z,2.63
2023-01-13T03:01:22.620Z,2.50
2023-01-13T03:03:50.097Z,1.90
2023-01-13T03:06:16.442Z,1.98
2023-01-13T03:09:05.251Z,2.95
2023-01-13T03:11:43.884Z,2.70
2023-01-13T03:14:35.783Z,2.58
2023-01-13T03:17:16.644Z,2.67
2023-01-13T03:20:03.345Z,2.08
2023-01-13T03:22:44.889Z,1.88
2023-01-13T03:25:36.591Z,2.42
2023-01-13T03:28:08.653Z,2.25
2023-01-13T03:30:47.959Z,2.13
2023-01-13T03:33:57.870Z,1.98
2023-01-13T03:36:28.052Z,2.03
2023-01-13T03:38:58.925Z,1.42
2023-01-13T03:41:57.232Z,1.77
2023-01-13T03:44:33.795Z,1.83
2023-01-13T03:47:15.304Z,2.10
2023-01-13T03:50:02.313Z,1.85
2023-01-13T03:52:33.158Z,1.65
2023-01-13T03:55:22.650Z,1.85
2023-01-13T03:57:55.573Z,1.30
2023-01-13T04:00:37.499Z,1.52
2023-01-13T04:03:12.025Z,1.67
2023-01-13T04:05:47.410Z,1.60
2023-01-13T04:08:25.870Z,1.23
2023-01-13T04:11:03.518Z,1.13
2023-01-13T04:13:36.619Z,1.05
2023-01-13T04:16:06.572Z,1.75
2023-01-13T04:18:33.179Z,1.67
2023-01-13T04:21:01.814Z,0.88
2023-01-13T04:23:29.051Z,1.37
2023-01-13T04:25:56.162Z,1.10
2023-01-13T04:28:23.528Z,1.40
2023-01-13T04:30:50.066Z,0.55
2023-01-13T04:33:18.101Z,0.65
2023-01-13T04:35:46.180Z,0.63
2023-01-13T04:38:18.195Z,1.10
2023-01-13T04:40:45.203Z,1.23
2023-01-13T04:43:12.399Z,0.75
2023-01-13T04:45:39.042Z,1.25
2023-01-13T04:48:05.879Z,0.80
2023-01-13T04:50:32.457Z,0.77
2023-01-13T04:53:00.439Z,0.75
2023-01-13T04:55:27.655Z,0.80
2023-01-13T04:57:54.137Z,0.40
2023-01-13T05:00:22.771Z,1.43
2023-01-13T05:02:50.848Z,0.80
2023-01-13T05:05:17.978Z,0.60
2023-01-13T05:07:44.549Z,0.77
2023-01-13T05:10:11.651Z,0.80
2023-01-13T05:12:56.711Z,0.67
2023-01-13T05:15:41.860Z,0.50
2023-01-13T05:18:08.688Z,0.70
2023-01-13T05:20:35.203Z,0.45
2023-01-13T05:23:20.420Z,1.50
2023-01-13T05:25:48.182Z,0.97
2023-01-13T05:28:15.123Z,0.90
2023-01-13T05:30:44.051Z,0.82
2023-01-13T05:33:11.762Z,0.60
2023-01-13T05:35:39.565Z,0.80
2023-01-13T05:38:06.007Z,0.77
2023-01-13T05:40:51.377Z,1.30
2023-01-13T05:43:20.062Z,0.77
2023-01-13T05:45:59.719Z,0.75
2023-01-13T05:48:33.018Z,0.77
2023-01-13T05:51:00.393Z,0.87
2023-01-13T05:53:27.176Z,0.80
2023-01-13T05:55:54.383Z,1.20
2023-01-13T05:58:23.205Z,0.88
2023-01-13T06:00:50.485Z,1.20
2023-01-13T06:03:20.079Z,1.07
2023-01-13T06:05:47.562Z,0.80
2023-01-13T06:08:14.221Z,1.20
2023-01-13T06:10:40.646Z,0.60
2023-01-13T06:13:07.017Z,0.90
2023-01-13T06:15:33.395Z,1.13
2023-01-13T06:18:03.160Z,1.23
2023-01-13T06:20:29.610Z,1.13
2023-01-13T06:22:56.095Z,1.23
2023-01-13T06:25:47.095Z,0.90
2023-01-13T06:28:13.661Z,1.40
2023-01-13T06:30:45.526Z,1.27
2023-01-13T06:33:20.276Z,1.15
2023-01-13T06:35:53.328Z,1.02
2023-01-13T06:38:23.669Z,0.90
2023-01-13T06:40:50.228Z,1.13
2023-01-13T06:43:17.392Z,1.05
2023-01-13T06:45:50.928Z,1.35
2023-01-13T06:48:18.556Z,1.45
2023-01-13T06:50:45.189Z,1.25
2023-01-13T06:53:12.279Z,1.10
2023-01-13T06:55:38.886Z,1.52
2023-01-13T06:58:05.660Z,1.20
2023-01-13T07:00:37.982Z,1.00
2023-01-13T07:03:10.415Z,1.85
2023-01-13T07:05:37.345Z,1.30
2023-01-13T07:08:04.193Z,0.85
2023-01-13T07:10:31.572Z,1.05
2023-01-13T07:13:19.064Z,1.00
2023-01-13T07:16:00.583Z,1.00
2023-01-13T07:18:31.400Z,1.57
2023-01-13T07:21:00.751Z,1.33
2023-01-13T07:23:29.303Z,1.60
2023-01-13T07:25:59.558Z,1.75
2023-01-13T07:28:27.491Z,1.60
2023-01-13T07:30:54.659Z,1.40
2023-01-13T07:33:21.583Z,1.20
2023-01-13T07:35:48.904Z,1.15
2023-01-13T07:38:15.768Z,1.52
2023-01-13T07:40:42.113Z,1.38
2023-01-13T07:43:30.849Z,1.30
2023-01-13T07:46:05.994Z,1.13
2023-01-13T07:48:34.731Z,1.73
2023-01-13T07:51:06.233Z,1.52
2023-01-13T07:53:33.580Z,1.77
2023-01-13T07:56:01.040Z,1.37
2023-01-13T07:58:28.630Z,1.35
2023-01-13T08:00:55.914Z,1.65
2023-01-13T08:03:23.149Z,1.20
2023-01-13T08:05:50.439Z,1.65
2023-01-13T08:08:17.050Z,1.53
2023-01-13T08:10:43.616Z,1.63
2023-01-13T08:13:18.096Z,1.00
2023-01-13T08:15:45.530Z,1.27
2023-01-13T08:18:12.593Z,1.50
2023-01-13T08:20:38.950Z,1.70
2023-01-13T08:23:07.313Z,1.25
2023-01-13T08:25:34.111Z,1.80
2023-01-13T08:28:00.524Z,1.63
2023-01-13T08:30:27.904Z,1.23
2023-01-13T08:32:54.655Z,2.27
2023-01-13T08:35:21.821Z,1.95
2023-01-13T08:37:48.728Z,2.20
2023-01-13T08:40:16.928Z,1.42
2023-01-13T08:42:43.739Z,1.58
2023-01-13T08:45:10.982Z,1.60
2023-01-13T08:47:37.418Z,2.13
2023-01-13T08:50:04.522Z,1.25
2023-01-13T08:52:30.991Z,1.45
2023-01-13T08:54:57.345Z,1.38
2023-01-13T08:57:23.778Z,1.37
2023-01-13T08:59:50.260Z,1.42
2023-01-13T09:02:21.084Z,1.70
2023-01-13T09:04:47.762Z,1.58
2023-01-13T09:07:15.002Z,1.42
2023-01-13T09:09:41.467Z,2.30
2023-01-13T09:12:30.725Z,1.65
2023-01-13T09:14:57.539Z,1.02
2023-01-13T09:17:23.981Z,1.25
2023-01-13T09:19:50.341Z,1.55
2023-01-13T09:22:19.062Z,1.00
2023-01-13T09:24:46.340Z,1.73
2023-01-13T09:27:14.764Z,1.30
2023-01-13T09:29:41.445Z,1.17
2023-01-13T09:32:11.233Z,1.40
2023-01-13T09:34:56.151Z,1.37
2023-01-13T09:37:22.683Z,1.70
2023-01-13T09:39:49.138Z,1.60
2023-01-13T09:42:40.768Z,1.25
2023-01-13T09:45:07.368Z,1.70
2023-01-13T09:47:43.506Z,1.20
2023-01-13T09:50:44.854Z,2.13
2023-01-13T09:53:21.108Z,1.30
2023-01-13T09:55:47.602Z,1.48
2023-01-13T09:58:18.637Z,1.40
2023-01-13T10:01:00.163Z,1.00
2023-01-13T10:03:29.864Z,1.40
2023-01-13T10:06:10.758Z,1.77
2023-01-13T10:08:42.718Z,1.25
2023-01-13T10:11:39.803Z,1.77
2023-01-13T10:14:24.012Z,1.40
2023-01-13T10:16:54.733Z,1.65
2023-01-13T10:19:29.455Z,1.73
2023-01-13T10:22:34.590Z,1.67
2023-01-13T10:25:06.941Z,1.40
2023-01-13T10:27:37.174Z,1.20
2023-01-13T10:30:31.159Z,1.15
2023-01-13T10:33:09.841Z,1.42
2023-01-13T10:35:54.945Z,1.52
2023-01-13T10:38:43.465Z,1.90
2023-01-13T10:41:15.750Z,1.60
2023-01-13T10:43:43.285Z,1.55
2023-01-13T10:46:18.390Z,1.48
2023-01-13T10:49:21.150Z,1.30
2023-01-13T10:51:47.917Z,1.30
2023-01-13T10:54:23.424Z,1.27
2023-01-13T10:57:10.495Z,1.45
2023-01-13T10:59:36.868Z,1.73
2023-01-13T11:02:29.259Z,1.85
2023-01-13T11:04:55.787Z,1.30
2023-01-13T11:07:42.156Z,2.07
2023-01-13T11:10:23.627Z,1.17
2023-01-13T11:12:59.251Z,1.10
2023-01-13T11:15:39.820Z,1.40
2023-01-13T11:18:37.722Z,1.45
2023-01-13T11:21:17.840Z,1.23
2023-01-13T11:23:52.192Z,0.82
2023-01-13T11:26:27.574Z,1.30
2023-01-13T11:29:14.149Z,1.27
2023-01-13T11:31:48.107Z,2.13
2023-01-13T11:34:36.677Z,1.50
2023-01-13T11:37:14.537Z,0.93
2023-01-13T11:39:56.835Z,1.40
2023-01-13T11:42:31.193Z,1.17
2023-01-13T11:45:17.311Z,1.52
2023-01-13T11:47:47.133Z,1.50
2023-01-13T11:50:26.177Z,0.60
2023-01-13T11:53:15.966Z,0.95
2023-01-13T11:56:08.129Z,0.80
2023-01-13T11:58:51.079Z,1.48
2023-01-13T12:01:31.370Z,1.03
2023-01-13T12:04:22.679Z,1.17
2023-01-13T12:07:27.603Z,1.08
2023-01-13T12:10:03.754Z,0.70
2023-01-13T12:13:00.142Z,1.00
2023-01-13T12:15:35.941Z,1.00
2023-01-13T12:18:18.023Z,0.80
2023-01-13T12:21:00.882Z,1.45
2023-01-13T12:23:32.387Z,0.77
2023-01-13T12:26:06.342Z,1.42
2023-01-13T12:28:44.655Z,0.60
2023-01-13T12:31:12.592Z,1.70
2023-01-13T12:34:36.265Z,1.50
2023-01-13T12:37:21.269Z,0.88
2023-01-13T12:39:58.653Z,1.05
2023-01-13T12:43:05.873Z,1.13
2023-01-13T12:45:33.659Z,0.80
2023-01-13T12:48:00.854Z,0.80
2023-01-13T12:50:27.232Z,1.10
2023-01-13T12:53:21.238Z,0.60
2023-01-13T12:55:53.666Z,0.90
2023-01-13T12:58:29.597Z,1.08
2023-01-13T13:01:10.797Z,1.35
2023-01-13T13:03:37.648Z,0.77
2023-01-13T13:06:24.000Z,1.02
2023-01-13T13:09:03.132Z,0.93
2023-01-13T13:11:56.418Z,0.70
2023-01-13T13:14:38.088Z,0.95
2023-01-13T13:17:25.420Z,0.98
2023-01-13T13:19:52.138Z,0.77
2023-01-13T13:22:20.990Z,0.80
2023-01-13T13:24:57.404Z,0.75
2023-01-13T13:27:42.625Z,0.98
2023-01-13T13:30:27.441Z,0.75
2023-01-13T13:33:22.895Z,1.00
2023-01-13T13:36:21.893Z,0.50
2023-01-13T13:39:23.635Z,0.98
2023-01-13T13:42:12.497Z,1.00
2023-01-13T13:45:01.326Z,0.60
2023-01-13T13:47:36.118Z,0.80
2023-01-13T13:50:08.857Z,1.33
2023-01-13T13:52:43.181Z,0.80
2023-01-13T13:55:15.033Z,0.50
2023-01-13T13:57:46.765Z,1.42
2023-01-13T14:00:18.046Z,0.77
2023-01-13T14:03:06.416Z,0.60
2023-01-13T14:05:37.203Z,0.98
2023-01-13T14:08:12.905Z,0.70
2023-01-13T14:10:43.378Z,1.33
2023-01-13T14:13:36.314Z,0.80
2023-01-13T14:16:10.692Z,0.77
2023-01-13T14:18:45.471Z,0.82
2023-01-13T14:21:19.476Z,0.93
2023-01-13T14:24:10.458Z,1.23
2023-01-13T14:26:36.899Z,0.90
2023-01-13T14:29:03.729Z,0.70
2023-01-13T14:31:31.485Z,0.90
2023-01-13T14:34:02.766Z,1.40
2023-01-13T14:36:51.148Z,1.45
2023-01-13T14:39:17.790Z,0.75
2023-01-13T14:41:45.439Z,1.00
2023-01-13T14:44:20.678Z,1.40
2023-01-13T14:46:47.301Z,0.77
2023-01-13T14:49:24.463Z,0.85
2023-01-13T14:51:51.491Z,0.93
2023-01-13T14:54:45.222Z,0.70
2023-01-13T14:57:25.229Z,1.00
2023-01-13T15:00:13.230Z,1.02
2023-01-13T15:02:49.863Z,0.85
2023-01-13T15:05:19.281Z,0.82
2023-01-13T15:07:54.477Z,1.03
2023-01-13T15:11:07.163Z,0.80
2023-01-13T15:13:43.686Z,0.65
2023-01-13T15:16:25.175Z,0.43
2023-01-13T15:18:52.365Z,0.63
2023-01-13T15:21:19.528Z,0.53
2023-01-13T15:23:47.272Z,0.80
2023-01-13T15:26:24.522Z,1.48
2023-01-13T15:28:51.993Z,1.05
2023-01-13T15:31:18.874Z,1.63
2023-01-13T15:33:45.360Z,0.90
2023-01-13T15:36:33.449Z,0.80
2023-01-13T15:39:01.062Z,0.77
2023-01-13T15:41:46.745Z,0.88
2023-01-13T15:44:33.530Z,1.45
2023-01-13T15:47:04.273Z,0.73
2023-01-13T15:49:42.432Z,0.70
2023-01-13T15:52:22.368Z,1.02
2023-01-13T15:54:49.644Z,0.90
2023-01-13T15:57:23.636Z,0.80
2023-01-13T15:59:51.728Z,0.93
2023-01-13T16:02:22.568Z,1.52
2023-01-13T16:04:51.296Z,0.88
2023-01-13T16:07:18.952Z,0.57
2023-01-13T16:09:45.689Z,0.95
2023-01-13T16:12:13.316Z,0.90
2023-01-13T16:14:39.894Z,1.13
2023-01-13T16:17:24.860Z,0.63
2023-01-13T16:19:51.949Z,0.95
2023-01-13T16:22:18.723Z,1.20
2023-01-13T16:24:45.335Z,0.90
2023-01-13T16:27:23.664Z,1.40
2023-01-13T16:29:51.550Z,0.80
2023-01-13T16:32:19.586Z,0.65
2023-01-13T16:34:46.835Z,1.40
2023-01-13T16:37:24.625Z,1.10
2023-01-13T16:39:52.647Z,0.75
2023-01-13T16:42:20.095Z,1.58
2023-01-13T16:44:48.273Z,0.80
2023-01-13T16:47:16.777Z,0.77
2023-01-13T16:49:43.848Z,1.13
2023-01-13T16:52:10.585Z,0.80
2023-01-13T16:54:37.127Z,1.25
2023-01-13T16:57:03.687Z,0.50
2023-01-13T16:59:30.177Z,0.95
2023-01-13T17:01:56.658Z,2.37
2023-01-13T17:04:23.552Z,1.60
2023-01-13T17:06:58.246Z,0.50
2023-01-13T17:09:27.418Z,1.08
2023-01-13T17:11:55.058Z,1.27
2023-01-13T17:14:23.386Z,0.60
2023-01-13T17:16:52.032Z,1.13
2023-01-13T17:19:19.293Z,0.40
2023-01-13T17:21:47.054Z,0.68
2023-01-13T17:24:14.110Z,0.60
2023-01-13T17:26:44.023Z,0.53
2023-01-13T17:29:25.158Z,0.60
2023-01-13T17:31:53.007Z,0.73
2023-01-13T17:34:21.215Z,0.65
2023-01-13T17:36:48.252Z,0.40
2023-01-13T17:39:19.993Z,0.57
2023-01-13T17:41:46.730Z,0.40
2023-01-13T17:44:14.992Z,0.30
2023-01-13T17:46:42.400Z,0.30
2023-01-13T17:49:10.964Z,0.30
2023-01-13T17:51:38.143Z,0.20
2023-01-13T17:54:04.714Z,0.20
2023-01-13T17:56:31.163Z,0.30
2023-01-13T17:58:58.314Z,0.20
2023-01-13T18:01:26.559Z,0.30
2023-01-13T18:03:53.043Z,0.37
2023-01-13T18:06:22.882Z,0.30
2023-01-13T18:08:50.324Z,0.50
2023-01-13T18:11:18.933Z,0.63
2023-01-13T18:13:50.089Z,0.60
2023-01-13T18:16:18.820Z,0.40
2023-01-13T18:18:47.099Z,0.47
2023-01-13T18:21:39.326Z,0.50
2023-01-13T18:24:29.166Z,1.00
2023-01-13T18:27:13.871Z,0.40
2023-01-13T18:29:40.247Z,0.50
2023-01-13T18:32:08.797Z,0.82
2023-01-13T18:34:36.195Z,0.45
2023-01-13T18:37:03.189Z,1.00
2023-01-13T18:39:29.586Z,0.80
2023-01-13T18:42:14.637Z,0.80
2023-01-13T18:44:41.011Z,0.75
2023-01-13T18:47:07.470Z,0.57
2023-01-13T18:49:33.828Z,0.60
2023-01-13T18:52:00.591Z,0.40
2023-01-13T18:54:27.228Z,0.70
2023-01-13T18:56:53.633Z,0.73
2023-01-13T18:59:20.175Z,0.30
2023-01-13T19:01:46.670Z,0.80
2023-01-13T19:04:15.885Z,0.60
2023-01-13T19:06:51.666Z,0.70
2023-01-13T19:09:26.763Z,0.63
2023-01-13T19:11:53.447Z,0.45
2023-01-13T19:14:37.669Z,0.50
2023-01-13T19:17:09.697Z,0.40
2023-01-13T19:19:40.507Z,0.73
2023-01-13T19:22:08.629Z,0.65
2023-01-13T19:24:35.140Z,0.82
2023-01-13T19:27:01.770Z,0.50
2023-01-13T19:29:28.475Z,0.90
2023-01-13T19:31:54.885Z,0.83
2023-01-13T19:34:24.085Z,0.60
2023-01-13T19:36:52.274Z,1.00
2023-01-13T19:39:19.936Z,0.60
2023-01-13T19:42:05.216Z,0.80
2023-01-13T19:44:50.499Z,0.53
2023-01-13T19:47:17.081Z,0.50
2023-01-13T19:49:44.277Z,0.57
2023-01-13T19:52:11.349Z,0.60
2023-01-13T19:54:37.804Z,0.65
2023-01-13T19:57:04.605Z,0.67
2023-01-13T19:59:32.471Z,1.10
2023-01-13T20:02:03.787Z,0.63
2023-01-13T20:04:38.292Z,0.70
2023-01-13T20:07:06.051Z,0.50
2023-01-13T20:09:34.356Z,1.47
2023-01-13T20:12:13.065Z,0.68
2023-01-13T20:14:39.637Z,1.33
2023-01-13T20:17:06.689Z,0.80
2023-01-13T20:19:33.413Z,0.73
2023-01-13T20:21:59.945Z,0.47
2023-01-13T20:24:26.416Z,0.68
2023-01-13T20:26:54.262Z,1.20
2023-01-13T20:29:21.470Z,0.50
2023-01-13T20:31:48.428Z,0.60
2023-01-13T20:34:18.125Z,0.53
2023-01-13T20:36:45.632Z,0.30
2023-01-13T20:39:17.876Z,0.55
2023-01-13T20:42:02.981Z,0.55
2023-01-13T20:44:29.532Z,0.63
2023-01-13T20:46:57.829Z,0.70
2023-01-13T20:49:25.946Z,0.38
2023-01-13T20:51:52.810Z,0.40
2023-01-13T20:54:19.964Z,0.70
2023-01-13T20:56:46.445Z,1.33
2023-01-13T20:59:13.031Z,0.67
2023-01-13T21:01:39.691Z,0.60
2023-01-13T21:04:07.004Z,0.50
2023-01-13T21:06:34.280Z,0.70
2023-01-13T21:09:00.858Z,0.73
2023-01-13T21:11:47.433Z,1.00
2023-01-13T21:14:39.029Z,0.70
2023-01-13T21:17:06.673Z,0.57
2023-01-13T21:19:33.440Z,1.38
2023-01-13T21:21:59.833Z,0.70
2023-01-13T21:24:26.561Z,0.67
2023-01-13T21:26:56.659Z,0.73
2023-01-13T21:29:23.086Z,0.70
2023-01-13T21:31:49.583Z,0.70
2023-01-13T21:34:16.132Z,1.35
2023-01-13T21:36:42.565Z,1.00
2023-01-13T21:39:09.263Z,0.70
2023-01-13T21:41:54.442Z,0.93
2023-01-13T21:44:39.773Z,0.65
2023-01-13T21:47:33.604Z,0.73
2023-01-13T21:50:00.907Z,0.80
2023-01-13T21:52:27.934Z,0.68
2023-01-13T21:55:13.081Z,0.65
2023-01-13T21:57:39.498Z,1.10
2023-01-13T22:00:06.423Z,1.08
2023-01-13T22:02:32.976Z,0.80
2023-01-13T22:05:00.926Z,0.68
2023-01-13T22:07:28.606Z,1.30
2023-01-13T22:09:55.922Z,0.80
2023-01-13T22:12:24.303Z,1.13
2023-01-13T22:14:51.795Z,0.90
2023-01-13T22:17:20.729Z,0.70
2023-01-13T22:19:48.395Z,0.98
2023-01-13T22:22:18.486Z,0.80
2023-01-13T22:24:47.337Z,1.48
2023-01-13T22:27:16.669Z,0.90
2023-01-13T22:29:43.162Z,1.10
2023-01-13T22:32:09.663Z,0.80
2023-01-13T22:34:36.081Z,0.85
2023-01-13T22:37:02.720Z,0.77
2023-01-13T22:39:29.728Z,0.60
2023-01-13T22:41:56.223Z,1.20
2023-01-13T22:44:23.141Z,0.90
2023-01-13T22:46:49.655Z,0.98
2023-01-13T22:49:17.073Z,0.98
2023-01-13T22:51:44.128Z,0.70
2023-01-13T22:54:11.837Z,0.98
2023-01-13T22:56:39.049Z,1.30
2023-01-13T22:59:07.418Z,0.75
2023-01-13T23:01:35.644Z,1.13
2023-01-13T23:04:03.181Z,1.17
2023-01-13T23:06:32.133Z,0.85
2023-01-13T23:08:59.505Z,1.08
2023-01-13T23:11:27.838Z,0.98
2023-01-13T23:14:05.556Z,0.70
2023-01-13T23:16:35.969Z,1.00
2023-01-13T23:19:03.284Z,1.00
2023-01-13T23:21:31.688Z,0.70
2023-01-13T23:23:58.975Z,0.80
2023-01-13T23:26:26.588Z,0.68
2023-01-13T23:28:53.125Z,0.60
2023-01-13T23:31:21.987Z,0.70
2023-01-13T23:33:48.991Z,0.90
2023-01-13T23:36:21.164Z,1.05
2023-01-13T23:38:47.623Z,0.93
2023-01-13T23:41:16.382Z,1.30
2023-01-13T23:43:42.870Z,0.60
2023-01-13T23:46:13.917Z,1.10
2023-01-13T23:48:40.423Z,0.60
2023-01-13T23:51:11.022Z,0.80
2023-01-13T23:53:40.657Z,0.90
2023-01-13T23:56:10.385Z,1.05
2023-01-13T23:58:36.786Z,0.90
